Time;durP1;ratioP1;P1;durP2;ratioP2;P2;SDS_P1;SDS_P2;PMS_P1;PMS_P2;Temp;Humidity;BMP_temperature;BMP_pressure;BME280_temperature;BME280_humidity;BME280_pressure;Samples;Min_cycle;Max_cycle;Signal;HPM_P1;HPM_P2
2021/05/02 00:01:16;;;;;;;7.38;1.60;;;;;;;;;;5096350;28;20026;-18
2021/05/02 00:03:41;;;;;;;7.32;2.00;;;;;;;;;;5096215;28;20024;-17
2021/05/02 00:06:08;;;;;;;8.23;2.03;;;;;;;;;;5096003;28;20505;-18
2021/05/02 00:08:34;;;;;;;9.00;1.42;;;;;;;;;;5096120;28;20028;-17
2021/05/02 00:10:59;;;;;;;2.22;1.13;;;;;;;;;;5095939;28;20423;-18
2021/05/02 00:13:24;;;;;;;8.48;1.80;;;;;;;;;;5096093;28;20142;-17
2021/05/02 00:15:50;;;;;;;5.40;1.30;;;;;;;;;;5094441;28;20525;-17
2021/05/02 00:18:16;;;;;;;9.10;1.65;;;;;;;;;;5095730;28;20091;-16
2021/05/02 00:20:42;;;;;;;0.57;0.38;;;;;;;;;;5095869;28;20036;-17
2021/05/02 00:23:07;;;;;;;7.88;0.52;;;;;;;;;;5095620;28;20039;-17
2021/05/02 00:25:33;;;;;;;8.50;0.50;;;;;;;;;;5111615;28;20023;-17
2021/05/02 00:27:59;;;;;;;4.05;1.80;;;;;;;;;;5095449;28;20024;-18
2021/05/02 00:30:25;;;;;;;17.38;3.60;;;;;;;;;;5095412;28;20060;-17
2021/05/02 00:32:51;;;;;;;12.50;2.47;;;;;;;;;;5095769;28;20033;-18
2021/05/02 00:35:18;;;;;;;1.05;0.93;;;;;;;;;;5095497;28;20111;-17
2021/05/02 00:37:44;;;;;;;3.83;1.20;;;;;;;;;;5095525;28;20420;-17
2021/05/02 00:40:16;;;;;;;2.20;0.63;;;;;;;;;;5095225;28;20120;-18
2021/05/02 00:42:42;;;;;;;;;;;;;;;;;;5095722;28;20024;-17
2021/05/02 00:45:08;;;;;;;4.18;1.33;;;;;;;;;;5094010;28;19911;-17
2021/05/02 00:47:37;;;;;;;6.72;1.90;;;;;;;;;;5095160;28;20024;-16
2021/05/02 00:50:05;;;;;;;6.60;2.38;;;;;;;;;;5094618;28;20020;-18
2021/05/02 00:52:34;;;;;;;1.85;1.27;;;;;;;;;;5095286;28;20050;-26
2021/05/02 00:55:05;;;;;;;5.55;1.58;;;;;;;;;;5095374;28;20020;-17
2021/05/02 00:57:34;;;;;;;10.90;2.30;;;;;;;;;;5094902;28;20028;-17
2021/05/02 01:00:01;;;;;;;8.32;2.50;;;;;;;;;;5093645;28;20097;-18
2021/05/02 01:02:28;;;;;;;5.70;1.38;;;;;;;;;;5094931;28;20197;-17
2021/05/02 01:04:55;;;;;;;6.53;1.58;;;;;;;;;;5094823;28;20497;-17
2021/05/02 01:07:22;;;;;;;3.05;1.48;;;;;;;;;;5095141;28;20035;-17
2021/05/02 01:09:47;;;;;;;3.80;2.17;;;;;;;;;;5094715;28;20483;-17
2021/05/02 01:12:14;;;;;;;6.28;2.65;;;;;;;;;;5094731;28;20036;-17
2021/05/02 01:14:43;;;;;;;7.03;2.33;;;;;;;;;;5110401;28;20031;-18
2021/05/02 01:17:10;;;;;;;4.78;1.92;;;;;;;;;;5094601;28;20024;-17
2021/05/02 01:19:35;;;;;;;7.50;1.95;;;;;;;;;;5094442;28;20036;-18
2021/05/02 01:22:01;;;;;;;8.88;1.98;;;;;;;;;;5094839;28;20031;-18
2021/05/02 01:24:27;;;;;;;6.63;2.63;;;;;;;;;;5094489;28;20023;-17
2021/05/02 01:26:52;;;;;;;7.22;2.25;;;;;;;;;;5094596;28;20517;-18
2021/05/02 01:29:18;;;;;;;4.60;1.98;;;;;;;;;;5094326;28;20411;-18
2021/05/02 01:31:43;;;;;;;10.95;2.80;;;;;;;;;;5093049;28;20418;-18
2021/05/02 01:34:09;;;;;;;7.47;2.38;;;;;;;;;;5092981;28;20024;-17
2021/05/02 01:36:35;;;;;;;7.03;2.50;;;;;;;;;;5094229;28;20093;-18
2021/05/02 01:39:02;;;;;;;8.68;2.97;;;;;;;;;;5094123;28;20020;-18
2021/05/02 01:41:28;;;;;;;8.18;2.38;;;;;;;;;;5093981;28;20028;-17
2021/05/02 01:43:53;;;;;;;5.80;2.35;;;;;;;;;;5094220;28;20023;-18
2021/05/02 01:46:22;;;;;;;8.82;2.00;;;;;;;;;;5094134;28;20024;-17
2021/05/02 01:48:49;;;;;;;13.88;2.80;;;;;;;;;;5093831;28;20490;-18
2021/05/02 01:51:15;;;;;;;11.40;2.55;;;;;;;;;;5109578;28;20024;-18
2021/05/02 01:53:41;;;;;;;9.38;2.40;;;;;;;;;;5093897;28;20020;-18
2021/05/02 01:56:06;;;;;;;14.75;3.00;;;;;;;;;;5092640;28;20036;-17
2021/05/02 01:58:32;;;;;;;5.55;2.15;;;;;;;;;;5093995;28;20081;-18
2021/05/02 02:01:09;;;;;;;9.23;2.40;;;;;;;;;;5093656;28;20066;-17
2021/05/02 02:03:35;;;;;;;8.88;2.22;;;;;;;;;;5093284;28;20034;-18
2021/05/02 02:06:01;;;;;;;10.75;2.67;;;;;;;;;;5093631;28;20020;-17
2021/05/02 02:08:27;;;;;;;10.93;2.35;;;;;;;;;;5093551;28;20026;-17
2021/05/02 02:10:52;;;;;;;10.05;3.20;;;;;;;;;;5093848;28;20044;-18
2021/05/02 02:13:18;;;;;;;5.30;2.30;;;;;;;;;;5093566;28;20024;-20
2021/05/02 02:15:44;;;;;;;14.88;2.47;;;;;;;;;;5093483;28;20465;-19
2021/05/02 02:18:11;;;;;;;3.72;1.45;;;;;;;;;;5093400;28;20594;-19
2021/05/02 02:20:41;;;;;;;6.18;2.28;;;;;;;;;;5093305;28;20035;-19
2021/05/02 02:23:17;;;;;;;7.45;2.70;;;;;;;;;;5093452;28;20154;-19
2021/05/02 02:25:44;;;;;;;17.45;3.03;;;;;;;;;;5093476;28;20032;-17
2021/05/02 02:28:10;;;;;;;12.27;3.30;;;;;;;;;;5093089;28;20016;-17
2021/05/02 02:30:37;;;;;;;8.20;2.80;;;;;;;;;;5093237;28;20028;-17
2021/05/02 02:33:02;;;;;;;7.18;3.08;;;;;;;;;;5093442;28;20059;-17
2021/05/02 02:35:29;;;;;;;5.38;2.55;;;;;;;;;;5108781;28;20078;-17
2021/05/02 02:37:55;;;;;;;6.75;2.28;;;;;;;;;;5091666;28;20027;-19
2021/05/02 02:40:22;;;;;;;7.90;2.25;;;;;;;;;;5092844;28;20040;-19
2021/05/02 02:42:47;;;;;;;5.72;3.15;;;;;;;;;;5093218;28;20077;-19
2021/05/02 02:45:13;;;;;;;8.18;2.50;;;;;;;;;;5109054;28;20032;-18
2021/05/02 02:47:53;;;;;;;3.45;2.40;;;;;;;;;;5092810;28;20016;-20
2021/05/02 02:50:19;;;;;;;11.98;3.50;;;;;;;;;;5092891;28;20032;-19
2021/05/02 02:52:55;;;;;;;5.50;2.72;;;;;;;;;;5093013;28;20015;-20
2021/05/02 02:55:22;;;;;;;8.95;3.22;;;;;;;;;;5092791;28;20036;-19
2021/05/02 02:57:57;;;;;;;14.35;3.35;;;;;;;;;;5092901;28;20012;-19
2021/05/02 03:00:24;;;;;;;8.30;3.58;;;;;;;;;;5092727;28;20075;-19
2021/05/02 03:03:01;;;;;;;6.85;2.33;;;;;;;;;;5092491;28;20020;-18
2021/05/02 03:05:27;;;;;;;3.10;1.60;;;;;;;;;;5092948;28;20044;-19
2021/05/02 03:07:53;;;;;;;8.93;3.75;;;;;;;;;;5092844;28;20020;-18
2021/05/02 03:10:18;;;;;;;9.23;3.67;;;;;;;;;;5092627;28;20028;-19
2021/05/02 03:12:44;;;;;;;6.85;2.15;;;;;;;;;;5092732;28;20449;-18
2021/05/02 03:15:10;;;;;;;8.20;1.95;;;;;;;;;;5092510;28;20055;-19
2021/05/02 03:17:36;;;;;;;3.67;1.70;;;;;;;;;;5092643;28;20020;-18
2021/05/02 03:20:06;;;;;;;8.40;3.30;;;;;;;;;;5092422;28;20044;-18
2021/05/02 03:22:35;;;;;;;4.13;2.38;;;;;;;;;;5092629;28;20024;-17
2021/05/02 03:25:01;;;;;;;0.95;0.82;;;;;;;;;;5092729;28;20115;-18
2021/05/02 03:27:31;;;;;;;10.25;2.33;;;;;;;;;;5092227;28;20409;-18
2021/05/02 03:29:58;;;;;;;7.07;2.38;;;;;;;;;;5092258;28;20059;-18
2021/05/02 03:32:24;;;;;;;7.00;2.25;;;;;;;;;;5092341;28;20020;-18
2021/05/02 03:34:53;;;;;;;7.72;2.67;;;;;;;;;;5092595;28;20036;-18
2021/05/02 03:37:19;;;;;;;6.07;2.88;;;;;;;;;;5092231;28;20020;-18
2021/05/02 03:39:48;;;;;;;2.35;1.42;;;;;;;;;;5092429;28;20101;-18
2021/05/02 03:42:14;;;;;;;5.20;2.00;;;;;;;;;;5092612;28;20523;-17
2021/05/02 03:44:39;;;;;;;3.25;1.23;;;;;;;;;;5108114;28;20379;-18
2021/05/02 03:47:05;;;;;;;4.22;1.75;;;;;;;;;;5092267;28;20012;-18
2021/05/02 03:49:31;;;;;;;2.53;1.50;;;;;;;;;;5092451;28;20541;-18
2021/05/02 03:51:56;;;;;;;9.48;4.22;;;;;;;;;;5092166;28;20447;-18
2021/05/02 03:54:21;;;;;;;4.30;2.33;;;;;;;;;;5092177;28;20054;-18
2021/05/02 03:56:47;;;;;;;6.80;2.55;;;;;;;;;;5092034;28;20107;-19
2021/05/02 03:59:16;;;;;;;3.47;2.80;;;;;;;;;;5092117;28;20065;-18
2021/05/02 04:01:48;;;;;;;3.33;1.77;;;;;;;;;;5092021;28;20020;-17
2021/05/02 04:04:16;;;;;;;6.18;2.35;;;;;;;;;;5092344;28;20075;-17
2021/05/02 04:06:42;;;;;;;4.60;1.50;;;;;;;;;;5091931;28;20050;-17
2021/05/02 04:09:08;;;;;;;5.43;2.00;;;;;;;;;;5092087;28;20463;-16
2021/05/02 04:11:34;;;;;;;4.75;2.58;;;;;;;;;;5091996;28;20486;-18
2021/05/02 04:14:00;;;;;;;4.35;1.70;;;;;;;;;;5092261;28;20024;-18
2021/05/02 04:16:26;;;;;;;3.35;1.52;;;;;;;;;;5092258;28;20078;-18
2021/05/02 04:18:51;;;;;;;5.18;2.47;;;;;;;;;;5107563;28;20471;-18
2021/05/02 04:21:17;;;;;;;4.35;1.83;;;;;;;;;;5091921;28;20032;-18
2021/05/02 04:23:42;;;;;;;3.67;1.85;;;;;;;;;;5091937;28;20036;-18
2021/05/02 04:26:07;;;;;;;2.63;1.58;;;;;;;;;;5094294;28;20046;-18
2021/05/02 04:28:33;;;;;;;3.50;1.88;;;;;;;;;;5095496;28;20036;-18
2021/05/02 04:30:58;;;;;;;3.60;1.80;;;;;;;;;;5094299;28;20020;-17
2021/05/02 04:33:23;;;;;;;2.67;1.45;;;;;;;;;;5095746;28;20052;-18
2021/05/02 04:35:49;;;;;;;4.78;2.95;;;;;;;;;;5095390;28;20023;-20
2021/05/02 04:38:14;;;;;;;5.65;1.42;;;;;;;;;;5095405;28;20036;-18
2021/05/02 04:40:39;;;;;;;1.73;1.23;;;;;;;;;;5095422;28;20063;-18
2021/05/02 04:43:05;;;;;;;4.47;1.42;;;;;;;;;;5095670;28;20032;-18
2021/05/02 04:45:30;;;;;;;5.13;1.55;;;;;;;;;;5095195;28;20459;-18
2021/05/02 04:47:55;;;;;;;6.75;1.90;;;;;;;;;;5095152;28;20028;-17
2021/05/02 04:50:21;;;;;;;4.05;1.60;;;;;;;;;;5095245;28;20024;-17
2021/05/02 04:52:46;;;;;;;4.07;1.75;;;;;;;;;;5095094;28;20035;-19
2021/05/02 04:55:11;;;;;;;4.60;1.58;;;;;;;;;;5093744;28;20034;-17
2021/05/02 04:57:37;;;;;;;2.08;1.50;;;;;;;;;;5094999;28;20028;-18
2021/05/02 05:00:02;;;;;;;4.00;1.60;;;;;;;;;;5094989;28;20031;-18
2021/05/02 05:02:28;;;;;;;3.38;1.20;;;;;;;;;;5094870;28;20024;-17
2021/05/02 05:04:53;;;;;;;3.20;1.75;;;;;;;;;;5110899;28;20477;-18
2021/05/02 05:07:19;;;;;;;4.22;1.48;;;;;;;;;;5094873;28;20024;-17
2021/05/02 05:09:44;;;;;;;3.78;1.42;;;;;;;;;;5094648;28;20020;-17
2021/05/02 05:12:09;;;;;;;2.05;1.15;;;;;;;;;;5095087;28;20103;-18
2021/05/02 05:14:35;;;;;;;3.03;1.77;;;;;;;;;;5094966;28;20382;-18
2021/05/02 05:17:00;;;;;;;3.90;1.30;;;;;;;;;;5094589;28;20437;-18
2021/05/02 05:19:25;;;;;;;3.67;1.05;;;;;;;;;;5093338;28;20101;-17
2021/05/02 05:21:51;;;;;;;9.48;1.50;;;;;;;;;;5094556;28;20028;-19
2021/05/02 05:24:16;;;;;;;3.30;1.67;;;;;;;;;;5094468;28;20485;-17
2021/05/02 05:26:42;;;;;;;7.93;3.50;;;;;;;;;;5094648;28;20035;-18
2021/05/02 05:29:07;;;;;;;2.10;1.83;;;;;;;;;;5094306;28;20048;-18
2021/05/02 05:31:32;;;;;;;9.05;2.20;;;;;;;;;;5109959;28;20028;-18
2021/05/02 05:33:58;;;;;;;1.35;1.17;;;;;;;;;;5094372;28;20407;-18
2021/05/02 05:36:23;;;;;;;1.67;1.17;;;;;;;;;;5094183;28;20032;-19
2021/05/02 05:38:48;;;;;;;3.72;1.30;;;;;;;;;;5093946;28;20024;-18
2021/05/02 05:41:14;;;;;;;2.83;1.60;;;;;;;;;;5094265;28;20059;-17
2021/05/02 05:43:39;;;;;;;1.75;1.40;;;;;;;;;;5092908;28;20514;-17
2021/05/02 05:46:04;;;;;;;3.17;1.27;;;;;;;;;;5094302;28;20514;-17
2021/05/02 05:48:31;;;;;;;1.90;1.23;;;;;;;;;;5094253;28;20104;-17
2021/05/02 05:50:56;;;;;;;1.30;1.13;;;;;;;;;;5093985;28;20114;-18
2021/05/02 05:53:22;;;;;;;0.93;0.75;;;;;;;;;;5093963;28;20052;-17
2021/05/02 05:55:47;;;;;;;1.42;0.82;;;;;;;;;;5093773;28;20032;-18
2021/05/02 05:58:13;;;;;;;5.10;1.40;;;;;;;;;;5093959;28;20008;-17
2021/05/02 06:00:38;;;;;;;3.80;1.45;;;;;;;;;;5093700;28;20116;-17
2021/05/02 06:03:03;;;;;;;1.45;0.88;;;;;;;;;;5092468;28;20483;-18
2021/05/02 06:05:29;;;;;;;6.32;2.65;;;;;;;;;;5093788;28;20032;-18
2021/05/02 06:07:54;;;;;;;1.50;1.30;;;;;;;;;;5093620;28;20016;-17
2021/05/02 06:10:20;;;;;;;1.95;1.27;;;;;;;;;;5093672;28;20169;-18
2021/05/02 06:12:45;;;;;;;1.55;1.05;;;;;;;;;;5093858;28;20070;-18
2021/05/02 06:15:12;;;;;;;4.72;1.20;;;;;;;;;;5093720;28;20028;-17
2021/05/02 06:17:38;;;;;;;5.38;2.30;;;;;;;;;;5109167;28;20043;-18
2021/05/02 06:20:03;;;;;;;3.97;1.10;;;;;;;;;;5093354;28;20479;-18
2021/05/02 06:22:29;;;;;;;0.80;0.80;;;;;;;;;;5093672;28;20016;-17
2021/05/02 06:24:54;;;;;;;1.15;1.00;;;;;;;;;;5092093;28;20445;-17
2021/05/02 06:27:20;;;;;;;1.05;0.95;;;;;;;;;;5093173;28;20024;-18
2021/05/02 06:29:45;;;;;;;2.53;1.15;;;;;;;;;;5093063;28;20135;-17
2021/05/02 06:32:11;;;;;;;2.95;1.10;;;;;;;;;;5093251;28;20070;-18
2021/05/02 06:34:36;;;;;;;1.67;1.15;;;;;;;;;;5093111;28;20028;-17
2021/05/02 06:37:02;;;;;;;0.60;0.60;;;;;;;;;;5093356;28;20459;-18
2021/05/02 06:39:28;;;;;;;3.72;1.20;;;;;;;;;;5092434;28;20387;-17
2021/05/02 06:41:53;;;;;;;5.50;1.67;;;;;;;;;;5093042;28;20016;-17
2021/05/02 06:44:19;;;;;;;1.88;1.13;;;;;;;;;;5093049;28;20084;-18
2021/05/02 06:46:44;;;;;;;4.00;1.60;;;;;;;;;;5091770;28;20115;-18
2021/05/02 06:49:10;;;;;;;0.57;0.47;;;;;;;;;;5092494;28;20047;-18
2021/05/02 06:51:37;;;;;;;5.53;1.30;;;;;;;;;;5092845;28;20066;-17
2021/05/02 06:54:03;;;;;;;1.33;1.23;;;;;;;;;;5092903;28;20116;-18
2021/05/02 06:56:29;;;;;;;2.30;1.45;;;;;;;;;;5092820;28;20066;-20
2021/05/02 06:58:55;;;;;;;3.28;1.85;;;;;;;;;;5092624;28;20421;-18
2021/05/02 07:01:20;;;;;;;3.03;1.67;;;;;;;;;;5093033;28;20046;-18
2021/05/02 07:03:46;;;;;;;2.45;1.13;;;;;;;;;;5108264;28;20032;-18
2021/05/02 07:06:17;;;;;;;1.30;0.90;;;;;;;;;;4928840;27;10000678;-18
2021/05/02 07:08:43;;;;;;;5.63;2.13;;;;;;;;;;5068652;28;20059;-18
2021/05/02 07:11:08;;;;;;;1.60;1.20;;;;;;;;;;5069277;28;20372;-18
2021/05/02 07:13:34;;;;;;;6.32;1.52;;;;;;;;;;5082068;28;20103;-20
2021/05/02 07:16:00;;;;;;;1.83;1.15;;;;;;;;;;5088780;28;20110;-20
2021/05/02 07:18:31;;;;;;;1.23;1.13;;;;;;;;;;5088825;28;20467;-20
2021/05/02 07:20:57;;;;;;;2.28;1.10;;;;;;;;;;5089179;28;20066;-19
2021/05/02 07:23:22;;;;;;;1.70;1.30;;;;;;;;;;5089042;28;20020;-19
2021/05/02 07:25:48;;;;;;;2.08;1.23;;;;;;;;;;5088884;28;20491;-18
2021/05/02 07:28:13;;;;;;;0.82;0.80;;;;;;;;;;5088888;28;20750;-19
2021/05/02 07:30:39;;;;;;;2.45;1.10;;;;;;;;;;5088508;28;20039;-19
2021/05/02 07:33:04;;;;;;;2.20;1.27;;;;;;;;;;5089330;28;20024;-19
2021/05/02 07:35:30;;;;;;;3.90;1.35;;;;;;;;;;5104906;28;20501;-18
2021/05/02 07:37:56;;;;;;;6.05;1.48;;;;;;;;;;5089408;28;20020;-18
2021/05/02 07:40:21;;;;;;;1.67;0.75;;;;;;;;;;5089146;28;20069;-18
2021/05/02 07:42:47;;;;;;;0.57;0.28;;;;;;;;;;5088743;28;20020;-17
2021/05/02 07:45:13;;;;;;;4.32;0.95;;;;;;;;;;5104648;28;20032;-19
2021/05/02 07:47:39;;;;;;;2.53;0.93;;;;;;;;;;5088596;28;20016;-20
2021/05/02 07:50:05;;;;;;;0.70;0.70;;;;;;;;;;5088632;28;20527;-20
2021/05/02 07:52:30;;;;;;;5.80;0.82;;;;;;;;;;5088773;28;20020;-19
2021/05/02 07:54:56;;;;;;;1.25;0.70;;;;;;;;;;5088504;28;20040;-20
2021/05/02 07:57:22;;;;;;;0.47;0.47;;;;;;;;;;5088926;28;20020;-20
2021/05/02 07:59:47;;;;;;;1.60;0.90;;;;;;;;;;5104963;28;20086;-19
2021/05/02 08:02:13;;;;;;;0.40;0.40;;;;;;;;;;5092083;28;20024;-19
2021/05/02 08:04:39;;;;;;;1.65;0.60;;;;;;;;;;5092460;28;20475;-19
2021/05/02 08:07:07;;;;;;;8.57;1.55;;;;;;;;;;5092414;28;20024;-20
2021/05/02 08:09:33;;;;;;;2.38;1.00;;;;;;;;;;5092952;28;20417;-19
2021/05/02 08:11:59;;;;;;;3.53;0.98;;;;;;;;;;5092674;28;20024;-18
2021/05/02 08:14:24;;;;;;;1.05;0.50;;;;;;;;;;5091623;28;20573;-19
2021/05/02 08:16:50;;;;;;;3.03;0.90;;;;;;;;;;5091764;28;20015;-19
2021/05/02 08:19:15;;;;;;;2.85;0.52;;;;;;;;;;5091906;28;20080;-19
2021/05/02 08:21:40;;;;;;;0.80;0.40;;;;;;;;;;5092236;28;20012;-18
2021/05/02 08:24:06;;;;;;;1.55;0.80;;;;;;;;;;5091087;28;20165;-18
2021/05/02 08:26:32;;;;;;;2.97;0.40;;;;;;;;;;5091840;28;20023;-18
2021/05/02 08:28:57;;;;;;;7.07;0.95;;;;;;;;;;5091517;28;20122;-17
2021/05/02 08:31:23;;;;;;;4.07;1.10;;;;;;;;;;5091208;28;20028;-18
2021/05/02 08:33:48;;;;;;;1.63;0.80;;;;;;;;;;5092073;28;20028;-18
2021/05/02 08:36:14;;;;;;;0.90;0.47;;;;;;;;;;5090942;28;20090;-19
2021/05/02 08:38:39;;;;;;;19.75;2.15;;;;;;;;;;5091099;28;20398;-18
2021/05/02 08:41:06;;;;;;;2.15;0.63;;;;;;;;;;5090084;28;20390;-19
2021/05/02 08:43:31;;;;;;;4.00;0.70;;;;;;;;;;5091537;28;20119;-19
2021/05/02 08:45:57;;;;;;;5.20;0.65;;;;;;;;;;5091500;28;20494;-19
2021/05/02 08:48:24;;;;;;;1.67;0.50;;;;;;;;;;5091524;28;20025;-19
2021/05/02 08:50:50;;;;;;;4.00;0.60;;;;;;;;;;5091724;28;20028;-19
2021/05/02 08:53:16;;;;;;;6.35;0.80;;;;;;;;;;5088908;28;20032;-18
2021/05/02 08:55:43;;;;;;;3.80;1.10;;;;;;;;;;5089414;28;20020;-18
2021/05/02 08:58:15;;;;;;;4.53;0.60;;;;;;;;;;5090106;28;20020;-17
2021/05/02 09:00:41;;;;;;;1.02;0.55;;;;;;;;;;5090548;28;20044;-19
2021/05/02 09:03:07;;;;;;;1.65;0.75;;;;;;;;;;5091434;28;20054;-17
2021/05/02 09:06:01;;;;;;;3.40;0.75;;;;;;;;;;5090610;28;20036;-18
2021/05/02 09:08:35;;;;;;;6.03;0.50;;;;;;;;;;5080274;28;20189;-18
2021/05/02 09:11:01;;;;;;;3.00;0.52;;;;;;;;;;5089785;28;20077;-18
2021/05/02 09:13:28;;;;;;;2.25;0.77;;;;;;;;;;5091502;28;20119;-18
2021/05/02 09:15:57;;;;;;;7.28;0.80;;;;;;;;;;5090874;28;20028;-18
2021/05/02 09:18:36;;;;;;;2.95;0.65;;;;;;;;;;5090906;28;20109;-18
2021/05/02 09:21:02;;;;;;;3.65;0.85;;;;;;;;;;5091145;28;20043;-18
2021/05/02 09:23:37;;;;;;;4.63;0.70;;;;;;;;;;5091129;28;20107;-18
2021/05/02 09:26:04;;;;;;;4.10;0.90;;;;;;;;;;5091237;28;20081;-19
2021/05/02 09:28:39;;;;;;;5.95;0.70;;;;;;;;;;5090968;28;20097;-18
2021/05/02 09:31:05;;;;;;;2.42;0.55;;;;;;;;;;5091002;28;20090;-18
2021/05/02 09:33:31;;;;;;;3.80;0.57;;;;;;;;;;5090794;28;20031;-18
2021/05/02 09:35:56;;;;;;;3.90;0.90;;;;;;;;;;5090474;28;20210;-17
2021/05/02 09:38:22;;;;;;;4.75;1.08;;;;;;;;;;5090695;28;20466;-20
2021/05/02 09:40:51;;;;;;;2.00;0.40;;;;;;;;;;5090536;28;20044;-18
2021/05/02 09:43:35;;;;;;;3.30;0.40;;;;;;;;;;5090387;28;20024;-18
2021/05/02 09:48:57;;;;;;;4.43;1.00;;;;;;;;;;5090565;28;20040;-19
2021/05/02 09:51:25;;;;;;;3.13;0.88;;;;;;;;;;5090604;28;20028;-18
2021/05/02 09:54:07;;;;;;;2.28;0.47;;;;;;;;;;5090353;28;20530;-19
2021/05/02 09:56:37;;;;;;;4.95;0.88;;;;;;;;;;5090815;28;20073;-18
2021/05/02 09:59:03;;;;;;;4.88;0.70;;;;;;;;;;5072384;28;20031;-19
2021/05/02 10:01:28;;;;;;;3.60;0.38;;;;;;;;;;5105861;28;20059;-19
2021/05/02 10:03:54;;;;;;;3.88;1.10;;;;;;;;;;5089780;28;20109;-18
2021/05/02 10:06:35;;;;;;;4.10;0.50;;;;;;;;;;5088662;28;20042;-18
2021/05/02 10:09:06;;;;;;;5.50;0.52;;;;;;;;;;5090159;28;20036;-19
2021/05/02 10:11:33;;;;;;;1.88;0.50;;;;;;;;;;5088901;28;20077;-19
2021/05/02 10:13:58;;;;;;;0.75;0.30;;;;;;;;;;5089922;28;20020;-19
2021/05/02 10:16:24;;;;;;;2.80;0.40;;;;;;;;;;5089791;28;20038;-17
2021/05/02 10:18:49;;;;;;;5.80;0.50;;;;;;;;;;5089203;28;20371;-17
2021/05/02 10:21:15;;;;;;;3.13;0.40;;;;;;;;;;5090041;28;20044;-17
2021/05/02 10:23:42;;;;;;;17.33;2.67;;;;;;;;;;5088770;28;20510;-17
2021/05/02 10:26:08;;;;;;;1.52;0.40;;;;;;;;;;5089616;28;20367;-18
2021/05/02 10:28:34;;;;;;;0.90;0.25;;;;;;;;;;5088719;28;20070;-18
2021/05/02 10:31:01;;;;;;;3.20;0.60;;;;;;;;;;5089117;28;20063;-19
2021/05/02 10:33:31;;;;;;;1.02;0.38;;;;;;;;;;5089391;28;20027;-19
2021/05/02 10:36:02;;;;;;;1.13;0.60;;;;;;;;;;5089081;28;20024;-18
2021/05/02 10:38:46;;;;;;;0.95;0.50;;;;;;;;;;5088080;28;20035;-19
2021/05/02 10:41:31;;;;;;;2.00;0.47;;;;;;;;;;5087878;28;20075;-16
2021/05/02 10:44:12;;;;;;;1.98;0.40;;;;;;;;;;5088285;28;20065;-17
2021/05/02 10:46:43;;;;;;;2.95;0.52;;;;;;;;;;5088955;28;20032;-17
2021/05/02 10:49:28;;;;;;;0.77;0.28;;;;;;;;;;5087268;28;20028;-17
2021/05/02 10:51:55;;;;;;;2.53;0.50;;;;;;;;;;5088644;28;20036;-16
2021/05/02 10:54:22;;;;;;;10.80;0.70;;;;;;;;;;5089077;28;20127;-17
2021/05/02 10:56:51;;;;;;;5.20;0.85;;;;;;;;;;5088590;28;20140;-17
2021/05/02 10:59:18;;;;;;;0.68;0.40;;;;;;;;;;5088331;28;20483;-17
2021/05/02 11:01:44;;;;;;;5.97;0.63;;;;;;;;;;5088792;28;20036;-18
2021/05/02 11:04:09;;;;;;;2.75;0.60;;;;;;;;;;5089190;28;20031;-17
2021/05/02 11:06:38;;;;;;;2.08;0.80;;;;;;;;;;5088444;28;20028;-17
2021/05/02 11:09:07;;;;;;;8.80;1.77;;;;;;;;;;5089049;28;20035;-22
2021/05/02 11:11:39;;;;;;;3.83;0.35;;;;;;;;;;5088151;28;20234;-18
2021/05/02 11:16:40;;;;;;;1.75;0.40;;;;;;;;;;5088824;28;20661;-17
2021/05/02 11:19:06;;;;;;;2.58;0.52;;;;;;;;;;5088090;28;20032;-17
2021/05/02 11:21:47;;;;;;;3.67;0.63;;;;;;;;;;5089348;28;20024;-18
2021/05/02 11:24:13;;;;;;;0.43;0.30;;;;;;;;;;5104502;28;20077;-18
2021/05/02 11:27:07;;;;;;;2.63;0.52;;;;;;;;;;4736011;28;10000201;-18
2021/05/02 11:32:00;;;;;;;1.77;0.50;;;;;;;;;;5088324;28;20054;-19
2021/05/02 11:34:25;;;;;;;3.50;1.17;;;;;;;;;;5090594;28;20059;-18
2021/05/02 11:36:52;;;;;;;10.25;0.80;;;;;;;;;;5092983;28;20528;-18
2021/05/02 11:39:29;;;;;;;3.38;0.80;;;;;;;;;;5092390;28;20130;-18
2021/05/02 11:42:13;;;;;;;1.25;0.35;;;;;;;;;;5108202;28;20073;-17
2021/05/02 11:44:39;;;;;;;4.45;0.70;;;;;;;;;;5092654;28;20470;-18
2021/05/02 11:47:08;;;;;;;4.93;0.40;;;;;;;;;;5092646;28;20019;-17
2021/05/02 11:49:37;;;;;;;6.25;0.75;;;;;;;;;;5092479;28;20059;-17
2021/05/02 11:52:03;;;;;;;3.45;0.82;;;;;;;;;;5092678;28;20046;-17
2021/05/02 11:54:28;;;;;;;4.65;0.88;;;;;;;;;;5092717;28;20752;-17
2021/05/02 11:56:54;;;;;;;0.95;0.70;;;;;;;;;;5092461;28;20012;-17
2021/05/02 11:59:19;;;;;;;8.85;1.42;;;;;;;;;;5092415;28;20024;-17
2021/05/02 12:01:48;;;;;;;2.80;0.75;;;;;;;;;;5092632;28;20020;-18
2021/05/02 12:04:16;;;;;;;2.92;1.05;;;;;;;;;;5091889;28;20024;-18
2021/05/02 12:06:42;;;;;;;5.72;0.98;;;;;;;;;;5091721;28;20058;-18
2021/05/02 12:09:14;;;;;;;9.38;0.80;;;;;;;;;;5108208;28;20028;-18
2021/05/02 12:11:41;;;;;;;3.08;0.70;;;;;;;;;;5092473;28;20026;-17
2021/05/02 12:14:06;;;;;;;6.53;1.10;;;;;;;;;;5091592;28;20478;-17
2021/05/02 12:16:32;;;;;;;5.40;1.35;;;;;;;;;;5092284;28;20032;-18
2021/05/02 12:18:57;;;;;;;4.57;0.80;;;;;;;;;;5092338;28;20103;-18
2021/05/02 12:21:28;;;;;;;0.73;0.73;;;;;;;;;;5092124;28;20046;-18
2021/05/02 12:24:05;;;;;;;3.00;0.82;;;;;;;;;;5092131;28;20032;-17
2021/05/02 12:26:31;;;;;;;5.97;0.68;;;;;;;;;;5091092;28;20060;-16
2021/05/02 12:29:02;;;;;;;11.48;1.10;;;;;;;;;;5091921;28;20075;-17
2021/05/02 12:31:27;;;;;;;10.73;1.48;;;;;;;;;;5091955;28;20026;-17
2021/05/02 12:33:53;;;;;;;5.22;0.85;;;;;;;;;;5090115;28;20496;-16
2021/05/02 12:36:19;;;;;;;4.65;1.02;;;;;;;;;;5091774;28;20020;-17
2021/05/02 12:38:44;;;;;;;3.72;0.45;;;;;;;;;;5106903;28;20023;-16
2021/05/02 12:41:17;;;;;;;6.13;0.95;;;;;;;;;;5091646;28;20067;-16
2021/05/02 12:43:46;;;;;;;11.35;0.90;;;;;;;;;;5107527;28;20709;-16
2021/05/02 12:46:12;;;;;;;7.53;0.93;;;;;;;;;;5090950;28;20027;-17
2021/05/02 12:48:39;;;;;;;4.15;1.25;;;;;;;;;;5091214;28;20024;-17
2021/05/02 12:51:05;;;;;;;10.38;0.98;;;;;;;;;;5091011;28;20012;-16
2021/05/02 12:53:43;;;;;;;5.22;0.70;;;;;;;;;;5091378;28;20175;-16
2021/05/02 12:56:09;;;;;;;1.70;0.82;;;;;;;;;;5091106;28;20036;-20
2021/05/02 12:58:42;;;;;;;6.65;1.90;;;;;;;;;;5091552;28;20022;-17
2021/05/02 13:01:17;;;;;;;4.72;0.80;;;;;;;;;;5091433;28;20526;-17
2021/05/02 13:03:55;;;;;;;6.22;1.50;;;;;;;;;;5090666;28;20028;-17
2021/05/02 13:06:22;;;;;;;3.28;0.68;;;;;;;;;;5091263;28;20388;-17
2021/05/02 13:08:58;;;;;;;4.75;0.60;;;;;;;;;;5091039;28;20024;-17
2021/05/02 13:11:28;;;;;;;3.47;0.60;;;;;;;;;;5091638;28;20035;-17
2021/05/02 13:14:16;;;;;;;4.00;0.68;;;;;;;;;;5091041;28;20032;-16
2021/05/02 13:16:46;;;;;;;6.78;1.02;;;;;;;;;;5090876;28;20391;-18
2021/05/02 13:19:23;;;;;;;4.18;1.02;;;;;;;;;;5091136;28;20028;-17
2021/05/02 13:21:49;;;;;;;6.07;1.25;;;;;;;;;;5090958;28;20107;-17
2021/05/02 13:24:14;;;;;;;4.75;0.77;;;;;;;;;;5090897;28;20447;-16
2021/05/02 13:26:41;;;;;;;7.82;0.68;;;;;;;;;;5090850;28;20051;-18
2021/05/02 13:29:13;;;;;;;3.65;0.95;;;;;;;;;;5090459;28;20063;-18
2021/05/02 13:31:53;;;;;;;1.27;0.22;;;;;;;;;;5090099;28;20130;-19
2021/05/02 13:34:20;;;;;;;2.42;0.90;;;;;;;;;;5090100;28;20036;-18
2021/05/02 13:36:48;;;;;;;6.43;0.70;;;;;;;;;;5090694;28;20016;-17
2021/05/02 13:39:14;;;;;;;1.50;0.55;;;;;;;;;;5090462;28;20036;-17
2021/05/02 13:41:39;;;;;;;7.93;1.00;;;;;;;;;;5090848;28;20038;-18
2021/05/02 13:44:09;;;;;;;4.65;0.60;;;;;;;;;;5090524;28;20027;-17
2021/05/02 13:46:35;;;;;;;16.67;1.88;;;;;;;;;;5090309;28;20028;-17
2021/05/02 13:49:01;;;;;;;9.10;1.13;;;;;;;;;;5090486;28;20043;-17
2021/05/02 13:51:27;;;;;;;7.25;1.02;;;;;;;;;;5090052;28;20103;-18
2021/05/02 13:53:53;;;;;;;4.10;0.70;;;;;;;;;;5089623;28;20159;-17
2021/05/02 13:56:18;;;;;;;5.70;0.90;;;;;;;;;;5089622;28;20020;-17
2021/05/02 13:58:44;;;;;;;6.18;0.73;;;;;;;;;;5088126;28;20028;-17
2021/05/02 14:01:10;;;;;;;5.05;0.70;;;;;;;;;;5089069;28;20024;-17
2021/05/02 14:03:35;;;;;;;3.00;0.43;;;;;;;;;;5089041;28;20489;-17
2021/05/02 14:06:01;;;;;;;5.93;1.17;;;;;;;;;;5089023;28;20020;-16
2021/05/02 14:08:26;;;;;;;7.03;0.52;;;;;;;;;;5089621;28;20035;-17
2021/05/02 14:10:51;;;;;;;5.95;0.70;;;;;;;;;;5089793;28;20027;-17
2021/05/02 14:13:17;;;;;;;6.00;1.02;;;;;;;;;;5089994;28;20043;-17
2021/05/02 14:15:42;;;;;;;4.88;0.52;;;;;;;;;;5089635;28;20016;-17
2021/05/02 14:18:08;;;;;;;5.45;0.93;;;;;;;;;;5089919;28;20483;-17
2021/05/02 14:20:33;;;;;;;11.90;1.00;;;;;;;;;;5090039;28;20024;-16
2021/05/02 14:22:58;;;;;;;10.52;1.05;;;;;;;;;;5089878;28;20386;-17
2021/05/02 14:25:24;;;;;;;5.65;1.20;;;;;;;;;;5089904;28;20020;-17
2021/05/02 14:27:49;;;;;;;9.48;1.23;;;;;;;;;;5087386;28;20032;-17
2021/05/02 14:30:15;;;;;;;6.72;1.48;;;;;;;;;;5089781;28;20059;-17
2021/05/02 14:32:40;;;;;;;4.10;0.77;;;;;;;;;;5089949;28;20024;-18
2021/05/02 14:35:06;;;;;;;2.90;0.95;;;;;;;;;;5087765;28;20427;-17
2021/05/02 14:37:31;;;;;;;8.75;1.50;;;;;;;;;;5069520;28;20032;-17
2021/05/02 14:39:56;;;;;;;3.67;0.73;;;;;;;;;;5071252;28;20129;-17
2021/05/02 14:42:23;;;;;;;5.68;1.15;;;;;;;;;;5089815;28;20410;-17
2021/05/02 14:44:48;;;;;;;5.53;0.90;;;;;;;;;;5078707;28;20023;-17
2021/05/02 14:47:14;;;;;;;6.15;0.88;;;;;;;;;;5070409;28;20139;-18
2021/05/02 14:49:39;;;;;;;6.50;1.50;;;;;;;;;;5089553;28;20026;-18
2021/05/02 14:52:05;;;;;;;9.57;1.50;;;;;;;;;;5089143;28;20028;-17